Stockton, New Jersey
Current Conditions -  °F | °C
As of 2:54 PM on Saturday 20 Dec 2014 (Local Time) from KDYL Reporting Station
Overcast Overcast  
Wind Chill: 32°   Ceiling: 3000
Heat Index: 32°   Visibility: 10mi
Dew Point: 21°   Wind: 3mph
Humidity: 64%   Direction: 30°NNE
Pressure: 30.24"   Gusts: NA
Location:  40.41°N, 74.98°W
Report Text: KDYL 201954Z AUTO 03003KT 10SM OVC030 00/M06 A3024 RMK AO2 SLP247 T00001061
Loading
Personal Weather Stations






























Interactive Weather Map New forecast layout! Learn more

10-Day Weather Forecast

Advertisements
Track Severe Weather on mobile